createdAt,value
2022-09-15T00:00:28.371Z,3.15
2022-09-15T00:02:55.051Z,3.40
2022-09-15T00:05:21.623Z,4.15
2022-09-15T00:07:48.502Z,3.42
2022-09-15T00:10:15.044Z,4.45
2022-09-15T00:12:41.629Z,3.67
2022-09-15T00:15:08.682Z,3.80
2022-09-15T00:17:35.344Z,3.83
2022-09-15T00:20:02.323Z,3.45
2022-09-15T00:22:29.103Z,3.28
2022-09-15T00:24:55.646Z,2.95
2022-09-15T00:27:22.254Z,3.15
2022-09-15T00:29:48.766Z,2.53
2022-09-15T00:32:15.376Z,2.60
2022-09-15T00:34:41.996Z,2.72
2022-09-15T00:37:08.671Z,2.05
2022-09-15T00:39:35.275Z,2.22
2022-09-15T00:42:04.277Z,1.63
2022-09-15T00:44:36.893Z,1.85
2022-09-15T00:47:21.846Z,2.10
2022-09-15T00:49:58.357Z,1.77
2022-09-15T00:52:38.085Z,1.90
2022-09-15T00:55:12.816Z,1.83
2022-09-15T00:57:45.334Z,2.13
2022-09-15T01:00:15.355Z,1.77
2022-09-15T01:02:43.689Z,2.30
2022-09-15T01:07:44.554Z,1.60
2022-09-15T01:10:15.912Z,1.55
2022-09-15T01:12:42.841Z,1.50
2022-09-15T01:15:09.763Z,1.90
2022-09-15T01:17:45.577Z,1.35
2022-09-15T01:20:35.369Z,1.70
2022-09-15T01:23:22.108Z,1.52
2022-09-15T01:26:09.073Z,1.88
2022-09-15T01:29:21.859Z,1.25
2022-09-15T01:32:15.339Z,1.80
2022-09-15T01:34:51.451Z,1.85
2022-09-15T01:37:22.827Z,1.92
2022-09-15T01:39:50.967Z,1.52
2022-09-15T01:42:18.972Z,2.28
2022-09-15T01:44:56.583Z,1.80
2022-09-15T01:47:25.858Z,2.08
2022-09-15T01:49:59.316Z,2.33
2022-09-15T01:52:28.043Z,1.90
2022-09-15T01:55:02.013Z,2.22
2022-09-15T01:57:28.743Z,2.67
2022-09-15T01:59:56.388Z,2.15
2022-09-15T02:02:30.002Z,2.35
2022-09-15T02:05:08.418Z,1.80
2022-09-15T02:08:09.179Z,2.45
2022-09-15T02:10:55.839Z,1.85
2022-09-15T02:13:39.126Z,2.40
2022-09-15T02:16:21.313Z,1.98
2022-09-15T02:19:18.770Z,2.33
2022-09-15T02:22:00.019Z,1.73
2022-09-15T02:27:09.594Z,1.88
2022-09-15T02:29:37.490Z,2.10
2022-09-15T02:32:07.534Z,2.47
2022-09-15T02:34:38.839Z,2.22
2022-09-15T02:37:06.229Z,1.55
2022-09-15T02:39:37.666Z,2.17
2022-09-15T02:42:04.455Z,2.95
2022-09-15T02:44:31.222Z,2.08
2022-09-15T02:47:01.951Z,2.08
2022-09-15T02:49:28.535Z,2.17
2022-09-15T02:51:55.181Z,2.08
2022-09-15T02:54:21.905Z,2.00
2022-09-15T02:56:48.586Z,1.95
2022-09-15T02:59:15.159Z,2.05
2022-09-15T03:01:41.843Z,1.98
2022-09-15T03:04:08.601Z,2.20
2022-09-15T03:09:15.952Z,1.60
2022-09-15T03:11:42.506Z,1.98
2022-09-15T03:14:09.125Z,2.25
2022-09-15T03:16:36.030Z,2.85
2022-09-15T03:19:03.016Z,2.08
2022-09-15T03:21:30.344Z,2.03
2022-09-15T03:23:58.522Z,2.08
2022-09-15T03:26:25.408Z,1.88
2022-09-15T03:28:51.966Z,2.20
2022-09-15T03:31:19.895Z,1.73
2022-09-15T03:33:46.984Z,1.80
2022-09-15T03:36:13.621Z,2.05
2022-09-15T03:38:40.218Z,2.22
2022-09-15T03:41:10.540Z,2.20
2022-09-15T03:43:38.109Z,1.85
2022-09-15T03:46:06.787Z,1.95
2022-09-15T03:48:35.688Z,1.90
2022-09-15T03:51:05.774Z,1.58
2022-09-15T03:53:34.381Z,2.30
2022-09-15T03:56:22.043Z,1.50
2022-09-15T04:01:15.177Z,3.83
2022-09-15T04:03:46.369Z,1.95
2022-09-15T04:06:15.100Z,2.50
2022-09-15T04:08:42.055Z,1.58
2022-09-15T04:11:11.188Z,1.77
2022-09-15T04:13:39.776Z,2.47
2022-09-15T04:16:10.550Z,1.92
2022-09-15T04:18:37.289Z,1.83
2022-09-15T04:21:13.050Z,1.73
2022-09-15T04:23:41.015Z,2.35
2022-09-15T04:26:16.001Z,1.92
2022-09-15T04:28:42.622Z,2.58
2022-09-15T04:31:12.052Z,2.08
2022-09-15T04:33:40.548Z,2.65
2022-09-15T04:36:16.557Z,2.78
2022-09-15T04:38:43.529Z,2.80
2022-09-15T04:41:10.662Z,2.42
2022-09-15T04:43:38.069Z,2.40
2022-09-15T04:46:05.239Z,2.72
2022-09-15T04:48:32.059Z,2.85
2022-09-15T04:51:03.794Z,2.88
2022-09-15T04:53:30.941Z,3.05
2022-09-15T04:56:12.036Z,3.63
2022-09-15T05:01:16.837Z,3.20
2022-09-15T05:03:44.145Z,3.45
2022-09-15T05:06:13.153Z,2.47
2022-09-15T05:08:40.089Z,3.05
2022-09-15T05:11:10.833Z,4.00
2022-09-15T05:13:38.521Z,2.90
2022-09-15T05:16:06.122Z,3.25
2022-09-15T05:18:33.157Z,3.80
2022-09-15T05:21:04.334Z,3.03
2022-09-15T05:23:31.564Z,3.55
2022-09-15T05:25:59.676Z,3.47
2022-09-15T05:28:27.019Z,3.03
2022-09-15T05:30:55.251Z,3.67
2022-09-15T05:33:23.751Z,3.15
2022-09-15T05:38:21.360Z,3.85
2022-09-15T05:40:48.483Z,3.20
2022-09-15T05:43:15.768Z,3.70
2022-09-15T05:45:42.817Z,3.60
2022-09-15T05:48:10.998Z,3.35
2022-09-15T05:50:38.673Z,3.30
2022-09-15T05:53:07.442Z,3.65
2022-09-15T05:55:38.084Z,3.90
2022-09-15T05:58:04.677Z,3.42
2022-09-15T06:00:31.163Z,3.72
2022-09-15T06:02:57.925Z,3.92
2022-09-15T06:05:24.545Z,3.95
2022-09-15T06:07:55.009Z,3.42
2022-09-15T06:10:25.137Z,3.92
2022-09-15T06:12:55.147Z,4.13
2022-09-15T06:15:22.684Z,2.75
2022-09-15T06:17:49.606Z,3.38
2022-09-15T06:20:16.849Z,3.85
2022-09-15T06:22:43.366Z,4.07
2022-09-15T06:25:11.698Z,4.35
2022-09-15T06:27:38.181Z,4.28
2022-09-15T06:30:05.300Z,3.80
2022-09-15T06:32:31.936Z,4.10
2022-09-15T06:34:58.533Z,3.92
2022-09-15T06:37:25.297Z,4.55
2022-09-15T06:39:51.993Z,4.35
2022-09-15T06:42:18.529Z,3.70
2022-09-15T06:47:17.034Z,4.43
2022-09-15T06:49:43.648Z,4.18
2022-09-15T06:52:10.187Z,4.95
2022-09-15T06:54:37.244Z,5.20
2022-09-15T06:57:04.322Z,4.82
2022-09-15T06:59:31.003Z,5.22
2022-09-15T07:02:02.697Z,5.95
2022-09-15T07:04:31.373Z,4.82
2022-09-15T07:06:57.956Z,4.95
2022-09-15T07:09:24.585Z,4.10
2022-09-15T07:11:51.170Z,5.15
2022-09-15T07:14:17.966Z,4.70
2022-09-15T07:16:44.511Z,4.95
2022-09-15T07:19:30.092Z,5.13
2022-09-15T07:21:56.663Z,4.60
2022-09-15T07:24:23.207Z,5.13
2022-09-15T07:26:49.820Z,4.60
2022-09-15T07:29:16.406Z,4.57
2022-09-15T07:31:43.044Z,4.40
2022-09-15T07:34:09.613Z,3.38
2022-09-15T07:36:36.530Z,3.95
2022-09-15T07:39:04.539Z,3.50
2022-09-15T07:41:32.018Z,2.78
2022-09-15T07:44:00.326Z,2.65
2022-09-15T07:48:57.767Z,3.70
2022-09-15T07:51:25.504Z,3.22
2022-09-15T07:53:52.931Z,3.53
2022-09-15T07:56:20.462Z,3.95
2022-09-15T07:58:48.213Z,3.13
2022-09-15T08:01:16.710Z,4.22
2022-09-15T08:03:48.954Z,4.05
2022-09-15T08:06:18.114Z,3.13
2022-09-15T08:08:44.899Z,3.63
2022-09-15T08:11:18.516Z,3.72
2022-09-15T08:13:46.699Z,2.85
2022-09-15T08:16:16.234Z,3.08
2022-09-15T08:18:43.798Z,3.35
2022-09-15T08:21:14.368Z,3.13
2022-09-15T08:23:41.037Z,3.42
2022-09-15T08:26:13.644Z,3.10
2022-09-15T08:28:40.897Z,3.22
2022-09-15T08:31:09.412Z,3.33
2022-09-15T08:33:36.572Z,3.38
2022-09-15T08:36:06.683Z,2.72
2022-09-15T08:38:33.542Z,2.45
2022-09-15T08:41:07.673Z,2.80
2022-09-15T08:43:47.978Z,3.05
2022-09-15T08:46:21.719Z,2.83
2022-09-15T08:48:55.766Z,2.90
2022-09-15T08:51:29.421Z,2.40
2022-09-15T08:54:11.362Z,3.42
2022-09-15T08:56:39.290Z,3.42
2022-09-15T08:59:05.892Z,2.78
2022-09-15T09:02:03.010Z,2.85
2022-09-15T09:04:53.847Z,2.63
2022-09-15T09:07:39.028Z,2.65
2022-09-15T09:10:14.673Z,2.45
2022-09-15T09:12:47.397Z,3.20
2022-09-15T09:15:20.061Z,3.60
2022-09-15T09:18:14.579Z,2.92
2022-09-15T09:21:16.352Z,2.92
2022-09-15T09:24:19.977Z,3.05
2022-09-15T09:26:51.814Z,2.70
2022-09-15T09:29:20.688Z,2.35
2022-09-15T09:31:50.612Z,2.55
2022-09-15T09:34:25.362Z,3.08
2022-09-15T09:36:57.302Z,2.55
2022-09-15T09:39:24.053Z,3.25
2022-09-15T09:41:51.057Z,2.95
2022-09-15T09:44:19.233Z,2.50
2022-09-15T09:46:47.375Z,2.20
2022-09-15T09:51:59.796Z,2.55
2022-09-15T09:54:28.629Z,1.92
2022-09-15T09:57:14.873Z,2.25
2022-09-15T09:59:46.506Z,2.65
2022-09-15T10:02:16.341Z,2.42
2022-09-15T10:05:09.594Z,2.50
2022-09-15T10:07:43.562Z,2.20
2022-09-15T10:10:20.504Z,2.03
2022-09-15T10:12:48.121Z,2.78
2022-09-15T10:15:23.059Z,2.70
2022-09-15T10:17:51.122Z,3.00
2022-09-15T10:20:25.420Z,2.50
2022-09-15T10:23:01.080Z,2.10
2022-09-15T10:25:49.406Z,2.25
2022-09-15T10:28:21.730Z,3.00
2022-09-15T10:30:58.906Z,2.10
2022-09-15T10:33:28.330Z,2.20
2022-09-15T10:36:03.097Z,2.72
2022-09-15T10:38:49.765Z,2.35
2022-09-15T10:41:29.422Z,2.83
2022-09-15T10:44:14.666Z,2.72
2022-09-15T10:46:44.351Z,2.78
2022-09-15T10:49:37.120Z,2.10
2022-09-15T10:52:25.583Z,2.03
2022-09-15T10:54:54.741Z,2.10
2022-09-15T10:57:50.237Z,2.25
2022-09-15T11:00:25.623Z,2.15
2022-09-15T11:02:55.310Z,2.10
2022-09-15T11:05:40.353Z,2.40
2022-09-15T11:08:33.269Z,2.05
2022-09-15T11:11:18.505Z,2.10
2022-09-15T11:14:07.309Z,1.98
2022-09-15T11:17:05.875Z,1.80
2022-09-15T11:20:14.083Z,1.95
2022-09-15T11:22:49.825Z,2.08
2022-09-15T11:25:26.480Z,2.28
2022-09-15T11:28:21.510Z,2.22
2022-09-15T11:31:00.993Z,2.03
2022-09-15T11:33:44.313Z,2.15
2022-09-15T11:36:15.641Z,2.08
2022-09-15T11:39:05.618Z,2.17
2022-09-15T11:42:01.005Z,1.95
2022-09-15T11:44:37.196Z,1.95
2022-09-15T11:47:36.529Z,2.00
2022-09-15T11:50:18.979Z,2.05
2022-09-15T11:52:45.726Z,2.42
2022-09-15T11:55:18.402Z,2.28
2022-09-15T11:57:50.964Z,1.90
2022-09-15T12:00:17.674Z,1.98
2022-09-15T12:03:04.857Z,2.42
2022-09-15T12:08:21.673Z,2.33
2022-09-15T12:10:55.026Z,2.38
2022-09-15T12:13:24.706Z,1.98
2022-09-15T12:15:52.240Z,2.25
2022-09-15T12:18:46.790Z,2.20
2022-09-15T12:21:23.166Z,1.85
2022-09-15T12:24:00.630Z,2.63
2022-09-15T12:26:28.790Z,2.60
2022-09-15T12:31:31.369Z,2.60
2022-09-15T12:34:06.756Z,2.55
2022-09-15T12:36:40.045Z,3.10
2022-09-15T12:39:18.801Z,2.65
2022-09-15T12:41:51.472Z,2.53
2022-09-15T12:44:42.486Z,2.58
2022-09-15T12:47:31.661Z,2.60
2022-09-15T12:50:05.291Z,2.13
2022-09-15T12:52:41.116Z,2.42
2022-09-15T12:55:19.029Z,2.85
2022-09-15T12:57:51.886Z,3.00
2022-09-15T13:00:22.444Z,2.50
2022-09-15T13:02:51.071Z,2.22
2022-09-15T13:05:42.043Z,2.40
2022-09-15T13:08:12.527Z,2.58
2022-09-15T13:10:43.419Z,2.40
2022-09-15T13:13:12.197Z,2.67
2022-09-15T13:15:46.509Z,2.63
2022-09-15T13:20:48.721Z,2.38
2022-09-15T13:23:15.797Z,3.03
2022-09-15T13:25:44.790Z,2.38
2022-09-15T13:31:23.630Z,2.65
2022-09-15T13:40:11.908Z,2.50
2022-09-15T13:43:21.358Z,2.85
2022-09-15T13:45:47.861Z,2.10
2022-09-15T13:48:20.116Z,2.90
2022-09-15T13:50:56.998Z,2.22
2022-09-15T13:53:50.410Z,2.90
2022-09-15T13:56:27.791Z,2.17
2022-09-15T13:59:04.517Z,2.15
2022-09-15T14:01:40.151Z,2.28
2022-09-15T14:04:14.719Z,2.60
2022-09-15T14:06:46.847Z,2.30
2022-09-15T14:09:23.603Z,2.45
2022-09-15T14:12:03.547Z,2.50
2022-09-15T14:14:42.748Z,1.83
2022-09-15T14:17:29.654Z,1.92
2022-09-15T14:19:58.978Z,2.50
2022-09-15T14:22:32.543Z,1.75
2022-09-15T14:25:04.934Z,1.80
2022-09-15T14:27:35.921Z,1.85
2022-09-15T14:30:07.023Z,1.30
2022-09-15T14:32:39.941Z,1.30
2022-09-15T14:35:19.694Z,1.63
2022-09-15T14:37:55.027Z,1.30
2022-09-15T14:40:39.921Z,1.50
2022-09-15T14:43:31.441Z,1.80
2022-09-15T14:46:19.221Z,2.00
2022-09-15T14:48:46.027Z,1.48
2022-09-15T14:51:23.598Z,1.77
2022-09-15T14:53:55.189Z,1.52
2022-09-15T14:56:25.427Z,1.60
2022-09-15T14:58:58.234Z,1.58
2022-09-15T15:01:40.903Z,1.45
2022-09-15T15:04:34.048Z,1.40
2022-09-15T15:07:14.134Z,1.60
2022-09-15T15:09:51.132Z,1.80
2022-09-15T15:12:25.580Z,1.70
2022-09-15T15:14:54.222Z,1.27
2022-09-15T15:17:28.676Z,1.60
2022-09-15T15:20:20.607Z,1.27
2022-09-15T15:22:48.374Z,1.33
2022-09-15T15:25:20.760Z,1.10
2022-09-15T15:27:58.665Z,1.50
2022-09-15T15:30:29.597Z,1.60
2022-09-15T15:33:01.742Z,1.20
2022-09-15T15:35:29.602Z,1.58
2022-09-15T15:38:02.478Z,1.90
2022-09-15T15:40:29.972Z,1.70
2022-09-15T15:43:02.645Z,2.03
2022-09-15T15:45:31.517Z,1.55
2022-09-15T15:47:58.185Z,1.50
2022-09-15T15:50:28.115Z,1.35
2022-09-15T15:52:54.815Z,1.38
2022-09-15T15:55:23.804Z,1.33
2022-09-15T15:57:54.808Z,1.55
2022-09-15T16:00:23.128Z,1.48
2022-09-15T16:02:50.974Z,1.52
2022-09-15T16:07:47.297Z,1.10
2022-09-15T16:10:19.068Z,1.42
2022-09-15T16:12:45.596Z,1.50
2022-09-15T16:15:14.946Z,1.20
2022-09-15T16:17:45.942Z,1.30
2022-09-15T16:20:15.915Z,1.42
2022-09-15T16:22:42.616Z,0.85
2022-09-15T16:25:15.835Z,0.70
2022-09-15T16:27:42.441Z,0.52
2022-09-15T16:30:11.937Z,0.40
2022-09-15T16:32:40.048Z,0.40
2022-09-15T16:37:42.487Z,0.28
2022-09-15T16:40:09.159Z,0.43
2022-09-15T16:42:35.733Z,0.47
2022-09-15T16:45:02.942Z,0.38
2022-09-15T16:47:29.441Z,0.40
2022-09-15T16:49:55.920Z,0.43
2022-09-15T16:52:22.451Z,0.43
2022-09-15T16:54:48.917Z,0.35
2022-09-15T16:57:17.935Z,0.88
2022-09-15T16:59:44.361Z,0.30
2022-09-15T17:02:14.334Z,0.32
2022-09-15T17:04:40.870Z,0.55
2022-09-15T17:07:07.976Z,0.60
2022-09-15T17:09:34.606Z,0.43
2022-09-15T17:12:01.271Z,0.35
2022-09-15T17:14:27.821Z,0.43
2022-09-15T17:16:54.437Z,0.20
2022-09-15T17:19:21.052Z,0.32
2022-09-15T17:21:50.101Z,0.57
2022-09-15T17:24:17.409Z,0.43
2022-09-15T17:26:44.067Z,0.38
2022-09-15T17:29:10.718Z,0.30
2022-09-15T17:31:37.240Z,0.68
2022-09-15T17:34:03.758Z,0.50
2022-09-15T17:36:30.323Z,0.40
2022-09-15T17:38:56.802Z,0.40
2022-09-15T17:41:23.326Z,0.40
2022-09-15T17:43:49.914Z,0.88
2022-09-15T17:46:16.836Z,1.67
2022-09-15T17:48:43.436Z,1.55
2022-09-15T17:51:14.834Z,1.70
2022-09-15T17:53:41.414Z,1.33
2022-09-15T17:56:07.938Z,1.30
2022-09-15T17:58:34.621Z,2.08
2022-09-15T18:01:01.258Z,2.20
2022-09-15T18:03:30.763Z,2.00
2022-09-15T18:05:59.596Z,1.98
2022-09-15T18:08:27.535Z,1.90
2022-09-15T18:10:54.680Z,2.08
2022-09-15T18:13:29.627Z,1.60
2022-09-15T18:15:57.181Z,2.10
2022-09-15T18:18:26.702Z,2.38
2022-09-15T18:20:55.164Z,1.77
2022-09-15T18:23:24.036Z,1.85
2022-09-15T18:25:50.794Z,1.38
2022-09-15T18:28:18.335Z,2.17
2022-09-15T18:30:47.881Z,1.75
2022-09-15T18:33:17.034Z,1.70
2022-09-15T18:35:43.987Z,1.70
2022-09-15T18:38:10.714Z,1.83
2022-09-15T18:40:37.710Z,1.67
2022-09-15T18:43:04.413Z,2.15
2022-09-15T18:45:31.321Z,2.35
2022-09-15T18:47:57.777Z,1.50
2022-09-15T18:50:25.255Z,2.42
2022-09-15T18:52:51.776Z,2.35
2022-09-15T18:55:21.075Z,2.63
2022-09-15T18:57:48.617Z,1.73
2022-09-15T19:00:18.390Z,2.15
2022-09-15T19:02:45.004Z,2.15
2022-09-15T19:05:12.116Z,2.08
2022-09-15T19:07:38.977Z,1.85
2022-09-15T19:10:07.308Z,2.00
2022-09-15T19:12:36.322Z,2.95
2022-09-15T19:15:04.597Z,2.50
2022-09-15T19:17:31.181Z,2.20
2022-09-15T19:19:57.732Z,2.00
2022-09-15T19:22:24.469Z,2.17
2022-09-15T19:24:50.931Z,2.10
2022-09-15T19:27:17.581Z,2.20
2022-09-15T19:29:44.474Z,1.85
2022-09-15T19:32:13.432Z,1.70
2022-09-15T19:34:42.021Z,1.80
2022-09-15T19:37:14.142Z,1.98
2022-09-15T19:39:43.427Z,2.08
2022-09-15T19:42:11.297Z,2.20
2022-09-15T19:44:38.014Z,2.35
2022-09-15T19:47:04.780Z,2.08
2022-09-15T19:49:31.316Z,2.22
2022-09-15T19:51:57.834Z,1.63
2022-09-15T19:54:27.499Z,1.95
2022-09-15T19:56:54.564Z,2.17
2022-09-15T19:59:21.161Z,2.47
2022-09-15T20:01:48.453Z,2.45
2022-09-15T20:04:15.362Z,2.50
2022-09-15T20:06:42.300Z,3.30
2022-09-15T20:09:10.112Z,2.60
2022-09-15T20:11:37.081Z,2.80
2022-09-15T20:14:04.240Z,2.55
2022-09-15T20:16:30.817Z,2.55
2022-09-15T20:18:57.349Z,3.03
2022-09-15T20:21:49.229Z,2.20
2022-09-15T20:24:17.064Z,2.38
2022-09-15T20:26:43.525Z,2.25
2022-09-15T20:29:10.637Z,2.33
2022-09-15T20:31:37.349Z,2.67
2022-09-15T20:34:03.874Z,2.70
2022-09-15T20:36:33.364Z,2.30
2022-09-15T20:39:03.193Z,2.28
2022-09-15T20:41:33.688Z,2.60
2022-09-15T20:44:00.534Z,2.35
2022-09-15T20:46:29.340Z,2.60
2022-09-15T20:48:55.948Z,2.42
2022-09-15T20:51:29.436Z,2.15
2022-09-15T20:53:57.312Z,2.30
2022-09-15T20:56:26.301Z,2.25
2022-09-15T20:58:54.392Z,2.10
2022-09-15T21:01:23.224Z,2.35
2022-09-15T21:03:50.253Z,1.73
2022-09-15T21:06:21.911Z,2.20
2022-09-15T21:08:48.980Z,1.92
2022-09-15T21:11:16.934Z,2.42
2022-09-15T21:13:44.350Z,1.98
2022-09-15T21:16:15.022Z,2.55
2022-09-15T21:18:43.295Z,1.92
2022-09-15T21:23:46.726Z,3.30
2022-09-15T21:26:16.345Z,2.30
2022-09-15T21:28:43.678Z,2.38
2022-09-15T21:31:13.267Z,1.95
2022-09-15T21:33:39.842Z,2.67
2022-09-15T21:36:14.655Z,2.50
2022-09-15T21:38:43.931Z,2.60
2022-09-15T21:41:16.325Z,2.67
2022-09-15T21:44:02.391Z,2.50
2022-09-15T21:46:30.867Z,3.03
2022-09-15T21:48:58.858Z,3.13
2022-09-15T21:51:26.987Z,2.13
2022-09-15T21:53:55.677Z,2.55
2022-09-15T21:56:23.550Z,2.90
2022-09-15T21:58:50.055Z,1.98
2022-09-15T22:01:36.252Z,1.55
2022-09-15T22:04:06.278Z,1.80
2022-09-15T22:06:40.119Z,2.65
2022-09-15T22:09:09.415Z,1.95
2022-09-15T22:11:36.221Z,1.92
2022-09-15T22:14:07.866Z,1.67
2022-09-15T22:16:37.972Z,1.98
2022-09-15T22:19:06.903Z,1.95
2022-09-15T22:21:37.015Z,2.08
2022-09-15T22:24:06.846Z,1.98
2022-09-15T22:26:36.290Z,2.70
2022-09-15T22:29:04.571Z,2.40
2022-09-15T22:33:57.934Z,1.77
2022-09-15T22:36:29.628Z,2.10
2022-09-15T22:39:03.661Z,2.13
2022-09-15T22:41:35.654Z,2.35
2022-09-15T22:44:03.352Z,1.77
2022-09-15T22:46:29.872Z,2.65
2022-09-15T22:49:05.953Z,2.22
2022-09-15T22:51:32.499Z,2.42
2022-09-15T22:53:59.245Z,2.53
2022-09-15T22:56:26.268Z,2.40
2022-09-15T22:58:53.414Z,2.22
2022-09-15T23:01:24.214Z,2.13
2022-09-15T23:03:52.461Z,2.78
2022-09-15T23:06:19.688Z,2.40
2022-09-15T23:08:51.119Z,2.50
2022-09-15T23:11:17.981Z,2.10
2022-09-15T23:13:44.551Z,2.38
2022-09-15T23:16:11.221Z,2.38
2022-09-15T23:18:37.809Z,2.17
2022-09-15T23:21:07.334Z,2.28
2022-09-15T23:23:35.859Z,2.65
2022-09-15T23:26:04.251Z,2.78
2022-09-15T23:28:31.574Z,2.22
2022-09-15T23:30:58.794Z,2.28
2022-09-15T23:33:27.440Z,2.10
2022-09-15T23:35:53.975Z,2.15
2022-09-15T23:38:21.816Z,2.63
2022-09-15T23:40:49.618Z,2.50
2022-09-15T23:43:17.285Z,2.20
2022-09-15T23:45:45.155Z,2.22
2022-09-15T23:48:13.118Z,2.03
2022-09-15T23:50:40.543Z,2.08
2022-09-15T23:53:07.733Z,2.28
2022-09-15T23:55:34.517Z,2.00
2022-09-15T23:58:01.022Z,2.70
